sensor_id;sensor_type;location;lat;lon;timestamp;P1;durP1;ratioP1;P2;durP2;ratioP2
22965;SDS011;11649;48.090;9.754;2023-04-16T00:01:34;3.95;;;3.53;;
22965;SDS011;11649;48.090;9.754;2023-04-16T00:04:01;4.50;;;3.65;;
22965;SDS011;11649;48.090;9.754;2023-04-16T00:06:28;3.25;;;2.95;;
22965;SDS011;11649;48.090;9.754;2023-04-16T00:08:55;3.83;;;3.10;;
22965;SDS011;11649;48.090;9.754;2023-04-16T00:11:22;3.13;;;2.80;;
22965;SDS011;11649;48.090;9.754;2023-04-16T00:13:49;4.15;;;3.40;;
22965;SDS011;11649;48.090;9.754;2023-04-16T00:16:15;3.95;;;3.42;;
22965;SDS011;11649;48.090;9.754;2023-04-16T00:18:42;3.47;;;2.83;;
22965;SDS011;11649;48.090;9.754;2023-04-16T00:21:09;4.10;;;3.45;;
22965;SDS011;11649;48.090;9.754;2023-04-16T00:23:36;4.90;;;3.38;;
22965;SDS011;11649;48.090;9.754;2023-04-16T00:26:03;3.95;;;3.00;;
22965;SDS011;11649;48.090;9.754;2023-04-16T00:28:30;2.60;;;2.30;;
22965;SDS011;11649;48.090;9.754;2023-04-16T00:30:56;2.78;;;2.47;;
22965;SDS011;11649;48.090;9.754;2023-04-16T00:33:23;3.08;;;2.50;;
22965;SDS011;11649;48.090;9.754;2023-04-16T00:35:50;3.20;;;2.63;;
22965;SDS011;11649;48.090;9.754;2023-04-16T00:38:17;2.60;;;2.40;;
22965;SDS011;11649;48.090;9.754;2023-04-16T00:40:44;1.92;;;1.83;;
22965;SDS011;11649;48.090;9.754;2023-04-16T00:43:14;2.55;;;2.10;;
22965;SDS011;11649;48.090;9.754;2023-04-16T00:45:50;2.20;;;1.90;;
22965;SDS011;11649;48.090;9.754;2023-04-16T00:48:19;2.05;;;1.80;;
22965;SDS011;11649;48.090;9.754;2023-04-16T00:50:46;2.10;;;1.70;;
22965;SDS011;11649;48.090;9.754;2023-04-16T00:53:13;1.45;;;1.35;;
22965;SDS011;11649;48.090;9.754;2023-04-16T00:55:40;1.50;;;1.30;;
22965;SDS011;11649;48.090;9.754;2023-04-16T00:58:07;1.48;;;1.23;;
22965;SDS011;11649;48.090;9.754;2023-04-16T01:00:34;1.52;;;1.33;;
22965;SDS011;11649;48.090;9.754;2023-04-16T01:03:01;1.30;;;1.20;;
22965;SDS011;11649;48.090;9.754;2023-04-16T01:05:28;3.30;;;1.35;;
22965;SDS011;11649;48.090;9.754;2023-04-16T01:07:57;1.50;;;1.20;;
22965;SDS011;11649;48.090;9.754;2023-04-16T01:10:25;1.50;;;1.40;;
22965;SDS011;11649;48.090;9.754;2023-04-16T01:12:52;1.60;;;1.50;;
22965;SDS011;11649;48.090;9.754;2023-04-16T01:15:19;1.50;;;1.40;;
22965;SDS011;11649;48.090;9.754;2023-04-16T01:17:46;2.17;;;1.75;;
22965;SDS011;11649;48.090;9.754;2023-04-16T01:20:13;1.40;;;1.30;;
22965;SDS011;11649;48.090;9.754;2023-04-16T01:22:40;1.85;;;1.67;;
22965;SDS011;11649;48.090;9.754;2023-04-16T01:25:07;1.75;;;1.38;;
22965;SDS011;11649;48.090;9.754;2023-04-16T01:27:38;1.50;;;1.40;;
22965;SDS011;11649;48.090;9.754;2023-04-16T01:30:05;3.33;;;1.83;;
22965;SDS011;11649;48.090;9.754;2023-04-16T01:32:32;2.03;;;1.80;;
22965;SDS011;11649;48.090;9.754;2023-04-16T01:34:59;2.40;;;2.00;;
22965;SDS011;11649;48.090;9.754;2023-04-16T01:37:26;1.90;;;1.70;;
22965;SDS011;11649;48.090;9.754;2023-04-16T01:39:52;1.90;;;1.60;;
22965;SDS011;11649;48.090;9.754;2023-04-16T01:42:19;2.10;;;1.90;;
22965;SDS011;11649;48.090;9.754;2023-04-16T01:44:46;1.67;;;1.58;;
22965;SDS011;11649;48.090;9.754;2023-04-16T01:47:13;2.85;;;2.20;;
22965;SDS011;11649;48.090;9.754;2023-04-16T01:49:40;2.10;;;1.90;;
22965;SDS011;11649;48.090;9.754;2023-04-16T01:52:07;2.65;;;2.15;;
22965;SDS011;11649;48.090;9.754;2023-04-16T01:54:34;3.35;;;2.13;;
22965;SDS011;11649;48.090;9.754;2023-04-16T01:57:01;2.28;;;2.00;;
22965;SDS011;11649;48.090;9.754;2023-04-16T01:59:28;2.80;;;2.10;;
22965;SDS011;11649;48.090;9.754;2023-04-16T02:01:55;2.97;;;2.10;;
22965;SDS011;11649;48.090;9.754;2023-04-16T02:04:21;3.35;;;2.10;;
22965;SDS011;11649;48.090;9.754;2023-04-16T02:06:48;2.65;;;2.17;;
22965;SDS011;11649;48.090;9.754;2023-04-16T02:09:15;1.85;;;1.75;;
22965;SDS011;11649;48.090;9.754;2023-04-16T02:11:42;2.33;;;2.13;;
22965;SDS011;11649;48.090;9.754;2023-04-16T02:14:08;2.20;;;2.00;;
22965;SDS011;11649;48.090;9.754;2023-04-16T02:16:35;2.42;;;2.00;;
22965;SDS011;11649;48.090;9.754;2023-04-16T02:19:02;2.60;;;1.95;;
22965;SDS011;11649;48.090;9.754;2023-04-16T02:21:29;2.55;;;1.95;;
22965;SDS011;11649;48.090;9.754;2023-04-16T02:23:56;3.28;;;1.88;;
22965;SDS011;11649;48.090;9.754;2023-04-16T02:26:23;2.13;;;1.92;;
22965;SDS011;11649;48.090;9.754;2023-04-16T02:28:51;2.10;;;1.90;;
22965;SDS011;11649;48.090;9.754;2023-04-16T02:31:18;2.05;;;1.85;;
22965;SDS011;11649;48.090;9.754;2023-04-16T02:33:45;1.75;;;1.65;;
22965;SDS011;11649;48.090;9.754;2023-04-16T02:36:12;1.92;;;1.73;;
22965;SDS011;11649;48.090;9.754;2023-04-16T02:38:38;2.08;;;1.88;;
22965;SDS011;11649;48.090;9.754;2023-04-16T02:41:06;3.03;;;2.05;;
22965;SDS011;11649;48.090;9.754;2023-04-16T02:43:32;2.95;;;2.40;;
22965;SDS011;11649;48.090;9.754;2023-04-16T02:45:59;4.45;;;2.28;;
22965;SDS011;11649;48.090;9.754;2023-04-16T02:48:26;2.63;;;2.00;;
22965;SDS011;11649;48.090;9.754;2023-04-16T02:50:53;2.72;;;2.15;;
22965;SDS011;11649;48.090;9.754;2023-04-16T02:53:19;2.10;;;1.90;;
22965;SDS011;11649;48.090;9.754;2023-04-16T02:55:53;2.10;;;1.90;;
22965;SDS011;11649;48.090;9.754;2023-04-16T02:58:20;2.05;;;1.88;;
22965;SDS011;11649;48.090;9.754;2023-04-16T03:00:49;1.98;;;1.77;;
22965;SDS011;11649;48.090;9.754;2023-04-16T03:03:16;1.98;;;1.80;;
22965;SDS011;11649;48.090;9.754;2023-04-16T03:05:43;1.58;;;1.48;;
22965;SDS011;11649;48.090;9.754;2023-04-16T03:08:10;2.25;;;1.83;;
22965;SDS011;11649;48.090;9.754;2023-04-16T03:10:37;1.80;;;1.70;;
22965;SDS011;11649;48.090;9.754;2023-04-16T03:13:04;2.50;;;1.70;;
22965;SDS011;11649;48.090;9.754;2023-04-16T03:15:31;1.95;;;1.75;;
22965;SDS011;11649;48.090;9.754;2023-04-16T03:17:58;1.75;;;1.60;;
22965;SDS011;11649;48.090;9.754;2023-04-16T03:20:25;1.65;;;1.55;;
22965;SDS011;11649;48.090;9.754;2023-04-16T03:22:52;2.00;;;1.80;;
22965;SDS011;11649;48.090;9.754;2023-04-16T03:25:19;2.38;;;2.00;;
22965;SDS011;11649;48.090;9.754;2023-04-16T03:27:46;1.60;;;1.50;;
22965;SDS011;11649;48.090;9.754;2023-04-16T03:30:13;2.20;;;1.90;;
22965;SDS011;11649;48.090;9.754;2023-04-16T03:32:40;2.03;;;1.80;;
22965;SDS011;11649;48.090;9.754;2023-04-16T03:35:07;2.20;;;2.00;;
22965;SDS011;11649;48.090;9.754;2023-04-16T03:37:35;4.03;;;2.10;;
22965;SDS011;11649;48.090;9.754;2023-04-16T03:40:01;2.22;;;1.80;;
22965;SDS011;11649;48.090;9.754;2023-04-16T03:42:30;1.65;;;1.55;;
22965;SDS011;11649;48.090;9.754;2023-04-16T03:44:57;1.80;;;1.70;;
22965;SDS011;11649;48.090;9.754;2023-04-16T03:47:24;1.63;;;1.52;;
22965;SDS011;11649;48.090;9.754;2023-04-16T03:49:51;1.75;;;1.65;;
22965;SDS011;11649;48.090;9.754;2023-04-16T03:52:18;1.85;;;1.75;;
22965;SDS011;11649;48.090;9.754;2023-04-16T03:54:44;2.08;;;1.88;;
22965;SDS011;11649;48.090;9.754;2023-04-16T03:57:11;2.00;;;1.80;;
22965;SDS011;11649;48.090;9.754;2023-04-16T03:59:38;2.05;;;1.70;;
22965;SDS011;11649;48.090;9.754;2023-04-16T04:02:05;1.95;;;1.75;;
22965;SDS011;11649;48.090;9.754;2023-04-16T04:04:31;2.35;;;1.90;;
22965;SDS011;11649;48.090;9.754;2023-04-16T04:06:58;2.25;;;1.98;;
22965;SDS011;11649;48.090;9.754;2023-04-16T04:09:25;2.47;;;2.05;;
22965;SDS011;11649;48.090;9.754;2023-04-16T04:11:52;5.18;;;2.30;;
22965;SDS011;11649;48.090;9.754;2023-04-16T04:14:18;3.92;;;2.70;;
22965;SDS011;11649;48.090;9.754;2023-04-16T04:16:45;3.42;;;2.10;;
22965;SDS011;11649;48.090;9.754;2023-04-16T04:19:12;4.32;;;2.60;;
22965;SDS011;11649;48.090;9.754;2023-04-16T04:21:39;3.10;;;2.50;;
22965;SDS011;11649;48.090;9.754;2023-04-16T04:24:06;3.03;;;2.63;;
22965;SDS011;11649;48.090;9.754;2023-04-16T04:26:33;3.58;;;2.22;;
22965;SDS011;11649;48.090;9.754;2023-04-16T04:28:59;2.72;;;2.25;;
22965;SDS011;11649;48.090;9.754;2023-04-16T04:31:26;1.90;;;1.80;;
22965;SDS011;11649;48.090;9.754;2023-04-16T04:33:53;1.92;;;1.80;;
22965;SDS011;11649;48.090;9.754;2023-04-16T04:36:20;2.25;;;1.70;;
22965;SDS011;11649;48.090;9.754;2023-04-16T04:38:46;2.10;;;1.90;;
22965;SDS011;11649;48.090;9.754;2023-04-16T04:41:13;3.55;;;1.90;;
22965;SDS011;11649;48.090;9.754;2023-04-16T04:43:40;3.13;;;2.20;;
22965;SDS011;11649;48.090;9.754;2023-04-16T04:46:06;2.10;;;1.90;;
22965;SDS011;11649;48.090;9.754;2023-04-16T04:48:33;2.53;;;1.90;;
22965;SDS011;11649;48.090;9.754;2023-04-16T04:51:00;2.15;;;1.70;;
22965;SDS011;11649;48.090;9.754;2023-04-16T04:53:30;2.03;;;1.83;;
22965;SDS011;11649;48.090;9.754;2023-04-16T04:55:57;2.15;;;1.75;;
22965;SDS011;11649;48.090;9.754;2023-04-16T04:58:37;1.90;;;1.70;;
22965;SDS011;11649;48.090;9.754;2023-04-16T05:01:04;2.63;;;1.45;;
22965;SDS011;11649;48.090;9.754;2023-04-16T05:03:31;2.00;;;1.80;;
22965;SDS011;11649;48.090;9.754;2023-04-16T05:05:58;2.35;;;1.63;;
22965;SDS011;11649;48.090;9.754;2023-04-16T05:08:25;1.83;;;1.60;;
22965;SDS011;11649;48.090;9.754;2023-04-16T05:10:52;4.25;;;2.00;;
22965;SDS011;11649;48.090;9.754;2023-04-16T05:13:18;1.70;;;1.60;;
22965;SDS011;11649;48.090;9.754;2023-04-16T05:15:45;1.90;;;1.70;;
22965;SDS011;11649;48.090;9.754;2023-04-16T05:18:12;2.22;;;1.75;;
22965;SDS011;11649;48.090;9.754;2023-04-16T05:20:39;2.33;;;2.00;;
22965;SDS011;11649;48.090;9.754;2023-04-16T05:23:05;1.80;;;1.52;;
22965;SDS011;11649;48.090;9.754;2023-04-16T05:25:32;2.88;;;2.10;;
22965;SDS011;11649;48.090;9.754;2023-04-16T05:27:59;2.92;;;2.00;;
22965;SDS011;11649;48.090;9.754;2023-04-16T05:30:26;1.95;;;1.75;;
22965;SDS011;11649;48.090;9.754;2023-04-16T05:32:52;2.53;;;2.33;;
22965;SDS011;11649;48.090;9.754;2023-04-16T05:35:19;2.88;;;1.85;;
22965;SDS011;11649;48.090;9.754;2023-04-16T05:37:46;2.20;;;2.00;;
22965;SDS011;11649;48.090;9.754;2023-04-16T05:40:13;2.20;;;2.00;;
22965;SDS011;11649;48.090;9.754;2023-04-16T05:42:40;2.30;;;2.10;;
22965;SDS011;11649;48.090;9.754;2023-04-16T05:45:06;2.10;;;1.90;;
22965;SDS011;11649;48.090;9.754;2023-04-16T05:47:34;2.08;;;1.88;;
22965;SDS011;11649;48.090;9.754;2023-04-16T05:50:01;2.75;;;2.15;;
22965;SDS011;11649;48.090;9.754;2023-04-16T05:52:27;2.80;;;2.40;;
22965;SDS011;11649;48.090;9.754;2023-04-16T05:54:54;2.20;;;1.95;;
22965;SDS011;11649;48.090;9.754;2023-04-16T05:57:21;6.15;;;3.75;;
22965;SDS011;11649;48.090;9.754;2023-04-16T05:59:47;6.10;;;4.47;;
22965;SDS011;11649;48.090;9.754;2023-04-16T06:02:14;4.15;;;3.45;;
22965;SDS011;11649;48.090;9.754;2023-04-16T06:04:41;10.85;;;7.05;;
22965;SDS011;11649;48.090;9.754;2023-04-16T06:07:09;7.57;;;5.25;;
22965;SDS011;11649;48.090;9.754;2023-04-16T06:09:35;19.95;;;12.60;;
22965;SDS011;11649;48.090;9.754;2023-04-16T06:12:02;10.35;;;7.18;;
22965;SDS011;11649;48.090;9.754;2023-04-16T06:14:29;7.68;;;5.88;;
22965;SDS011;11649;48.090;9.754;2023-04-16T06:16:56;8.65;;;6.22;;
22965;SDS011;11649;48.090;9.754;2023-04-16T06:19:23;6.18;;;5.57;;
22965;SDS011;11649;48.090;9.754;2023-04-16T06:21:49;2.38;;;2.17;;
22965;SDS011;11649;48.090;9.754;2023-04-16T06:24:16;2.30;;;2.05;;
22965;SDS011;11649;48.090;9.754;2023-04-16T06:26:44;6.45;;;5.50;;
22965;SDS011;11649;48.090;9.754;2023-04-16T06:29:11;5.50;;;5.00;;
22965;SDS011;11649;48.090;9.754;2023-04-16T06:31:38;4.20;;;3.55;;
22965;SDS011;11649;48.090;9.754;2023-04-16T06:34:05;5.10;;;4.22;;
22965;SDS011;11649;48.090;9.754;2023-04-16T06:36:31;5.13;;;4.60;;
22965;SDS011;11649;48.090;9.754;2023-04-16T06:38:58;4.70;;;4.20;;
22965;SDS011;11649;48.090;9.754;2023-04-16T06:41:25;4.22;;;3.65;;
22965;SDS011;11649;48.090;9.754;2023-04-16T06:43:52;5.65;;;3.20;;
22965;SDS011;11649;48.090;9.754;2023-04-16T06:46:19;3.33;;;2.72;;
22965;SDS011;11649;48.090;9.754;2023-04-16T06:48:46;3.20;;;2.90;;
22965;SDS011;11649;48.090;9.754;2023-04-16T06:51:12;3.00;;;2.70;;
22965;SDS011;11649;48.090;9.754;2023-04-16T06:53:39;2.65;;;2.40;;
22965;SDS011;11649;48.090;9.754;2023-04-16T06:56:07;3.00;;;2.53;;
22965;SDS011;11649;48.090;9.754;2023-04-16T06:58:34;4.40;;;2.88;;
22965;SDS011;11649;48.090;9.754;2023-04-16T07:01:01;2.60;;;1.98;;
22965;SDS011;11649;48.090;9.754;2023-04-16T07:03:28;2.20;;;1.90;;
22965;SDS011;11649;48.090;9.754;2023-04-16T07:05:55;2.33;;;2.13;;
22965;SDS011;11649;48.090;9.754;2023-04-16T07:08:22;2.35;;;2.10;;
22965;SDS011;11649;48.090;9.754;2023-04-16T07:10:50;2.08;;;1.50;;
22965;SDS011;11649;48.090;9.754;2023-04-16T07:13:19;2.72;;;1.90;;
22965;SDS011;11649;48.090;9.754;2023-04-16T07:15:46;2.03;;;1.83;;
22965;SDS011;11649;48.090;9.754;2023-04-16T07:18:13;2.20;;;2.00;;
22965;SDS011;11649;48.090;9.754;2023-04-16T07:20:40;3.88;;;3.47;;
22965;SDS011;11649;48.090;9.754;2023-04-16T07:23:06;3.35;;;3.05;;
22965;SDS011;11649;48.090;9.754;2023-04-16T07:25:33;2.42;;;2.22;;
22965;SDS011;11649;48.090;9.754;2023-04-16T07:28:00;3.40;;;2.65;;
22965;SDS011;11649;48.090;9.754;2023-04-16T07:30:28;2.83;;;2.40;;
22965;SDS011;11649;48.090;9.754;2023-04-16T07:32:59;2.45;;;2.20;;
22965;SDS011;11649;48.090;9.754;2023-04-16T07:35:28;2.58;;;2.20;;
22965;SDS011;11649;48.090;9.754;2023-04-16T07:37:55;2.60;;;2.33;;
22965;SDS011;11649;48.090;9.754;2023-04-16T07:40:22;2.30;;;2.00;;
22965;SDS011;11649;48.090;9.754;2023-04-16T07:42:49;5.97;;;2.00;;
22965;SDS011;11649;48.090;9.754;2023-04-16T07:45:17;1.88;;;1.75;;
22965;SDS011;11649;48.090;9.754;2023-04-16T07:47:44;1.67;;;1.58;;
22965;SDS011;11649;48.090;9.754;2023-04-16T07:50:11;1.83;;;1.70;;
22965;SDS011;11649;48.090;9.754;2023-04-16T07:52:38;2.30;;;2.10;;
22965;SDS011;11649;48.090;9.754;2023-04-16T07:55:07;3.75;;;2.42;;
22965;SDS011;11649;48.090;9.754;2023-04-16T07:57:34;2.47;;;2.25;;
22965;SDS011;11649;48.090;9.754;2023-04-16T08:00:01;2.45;;;1.80;;
22965;SDS011;11649;48.090;9.754;2023-04-16T08:02:30;2.53;;;1.77;;
22965;SDS011;11649;48.090;9.754;2023-04-16T08:04:57;2.38;;;2.10;;
22965;SDS011;11649;48.090;9.754;2023-04-16T08:07:24;2.72;;;2.00;;
22965;SDS011;11649;48.090;9.754;2023-04-16T08:09:51;1.95;;;1.60;;
22965;SDS011;11649;48.090;9.754;2023-04-16T08:12:19;1.67;;;1.20;;
22965;SDS011;11649;48.090;9.754;2023-04-16T08:14:46;1.67;;;1.58;;
22965;SDS011;11649;48.090;9.754;2023-04-16T08:17:13;1.40;;;1.30;;
22965;SDS011;11649;48.090;9.754;2023-04-16T08:19:41;1.67;;;1.42;;
22965;SDS011;11649;48.090;9.754;2023-04-16T08:22:13;2.05;;;1.05;;
22965;SDS011;11649;48.090;9.754;2023-04-16T08:24:40;1.30;;;1.20;;
22965;SDS011;11649;48.090;9.754;2023-04-16T08:27:06;2.75;;;1.60;;
22965;SDS011;11649;48.090;9.754;2023-04-16T08:29:45;1.20;;;1.00;;
22965;SDS011;11649;48.090;9.754;2023-04-16T08:32:12;1.98;;;1.20;;
22965;SDS011;11649;48.090;9.754;2023-04-16T08:34:39;1.92;;;1.23;;
22965;SDS011;11649;48.090;9.754;2023-04-16T08:37:06;1.42;;;1.30;;
22965;SDS011;11649;48.090;9.754;2023-04-16T08:39:33;2.45;;;2.03;;
22965;SDS011;11649;48.090;9.754;2023-04-16T08:42:01;1.65;;;1.40;;
22965;SDS011;11649;48.090;9.754;2023-04-16T08:44:30;1.70;;;1.42;;
22965;SDS011;11649;48.090;9.754;2023-04-16T08:47:00;2.60;;;2.20;;
22965;SDS011;11649;48.090;9.754;2023-04-16T08:49:27;1.70;;;1.50;;
22965;SDS011;11649;48.090;9.754;2023-04-16T08:51:55;2.53;;;1.90;;
22965;SDS011;11649;48.090;9.754;2023-04-16T08:54:38;2.70;;;2.28;;
22965;SDS011;11649;48.090;9.754;2023-04-16T08:57:21;2.53;;;1.75;;
22965;SDS011;11649;48.090;9.754;2023-04-16T08:59:52;1.50;;;1.40;;
22965;SDS011;11649;48.090;9.754;2023-04-16T09:02:21;1.95;;;1.63;;
22965;SDS011;11649;48.090;9.754;2023-04-16T09:04:48;2.53;;;2.33;;
22965;SDS011;11649;48.090;9.754;2023-04-16T09:07:17;3.33;;;2.28;;
22965;SDS011;11649;48.090;9.754;2023-04-16T09:09:47;3.50;;;1.90;;
22965;SDS011;11649;48.090;9.754;2023-04-16T09:12:15;1.90;;;1.70;;
22965;SDS011;11649;48.090;9.754;2023-04-16T09:14:42;2.72;;;2.28;;
22965;SDS011;11649;48.090;9.754;2023-04-16T09:17:14;3.65;;;2.47;;
22965;SDS011;11649;48.090;9.754;2023-04-16T09:19:42;3.83;;;2.95;;
22965;SDS011;11649;48.090;9.754;2023-04-16T09:22:09;4.40;;;3.05;;
22965;SDS011;11649;48.090;9.754;2023-04-16T09:24:36;4.60;;;3.42;;
22965;SDS011;11649;48.090;9.754;2023-04-16T09:27:04;4.63;;;3.47;;
22965;SDS011;11649;48.090;9.754;2023-04-16T09:29:38;3.70;;;3.30;;
22965;SDS011;11649;48.090;9.754;2023-04-16T09:32:11;5.05;;;3.50;;
22965;SDS011;11649;48.090;9.754;2023-04-16T09:34:57;5.60;;;4.18;;
22965;SDS011;11649;48.090;9.754;2023-04-16T09:37:26;5.68;;;3.75;;
22965;SDS011;11649;48.090;9.754;2023-04-16T09:42:29;5.20;;;4.05;;
22965;SDS011;11649;48.090;9.754;2023-04-16T09:44:58;5.63;;;4.50;;
22965;SDS011;11649;48.090;9.754;2023-04-16T09:47:38;5.22;;;4.20;;
22965;SDS011;11649;48.090;9.754;2023-04-16T09:50:09;5.72;;;4.38;;
22965;SDS011;11649;48.090;9.754;2023-04-16T09:52:44;5.78;;;4.80;;
22965;SDS011;11649;48.090;9.754;2023-04-16T09:55:15;5.82;;;4.63;;
22965;SDS011;11649;48.090;9.754;2023-04-16T09:57:42;5.25;;;4.43;;
22965;SDS011;11649;48.090;9.754;2023-04-16T10:00:09;6.72;;;5.55;;
22965;SDS011;11649;48.090;9.754;2023-04-16T10:02:38;5.57;;;4.55;;
22965;SDS011;11649;48.090;9.754;2023-04-16T10:05:07;7.40;;;4.97;;
22965;SDS011;11649;48.090;9.754;2023-04-16T10:07:35;5.30;;;4.40;;
22965;SDS011;11649;48.090;9.754;2023-04-16T10:10:03;5.60;;;4.47;;
22965;SDS011;11649;48.090;9.754;2023-04-16T10:12:30;7.85;;;4.70;;
22965;SDS011;11649;48.090;9.754;2023-04-16T10:15:00;5.90;;;4.88;;
22965;SDS011;11649;48.090;9.754;2023-04-16T10:17:27;5.85;;;5.00;;
22965;SDS011;11649;48.090;9.754;2023-04-16T10:19:56;6.28;;;4.78;;
22965;SDS011;11649;48.090;9.754;2023-04-16T10:22:23;6.78;;;5.30;;
22965;SDS011;11649;48.090;9.754;2023-04-16T10:24:51;7.10;;;5.80;;
22965;SDS011;11649;48.090;9.754;2023-04-16T10:27:19;6.90;;;5.50;;
22965;SDS011;11649;48.090;9.754;2023-04-16T10:29:46;7.65;;;5.93;;
22965;SDS011;11649;48.090;9.754;2023-04-16T10:32:14;7.35;;;5.93;;
22965;SDS011;11649;48.090;9.754;2023-04-16T10:34:42;7.50;;;5.95;;
22965;SDS011;11649;48.090;9.754;2023-04-16T10:37:09;8.10;;;6.38;;
22965;SDS011;11649;48.090;9.754;2023-04-16T10:39:36;7.50;;;5.80;;
22965;SDS011;11649;48.090;9.754;2023-04-16T10:42:10;6.95;;;5.80;;
22965;SDS011;11649;48.090;9.754;2023-04-16T10:47:09;9.43;;;6.25;;
22965;SDS011;11649;48.090;9.754;2023-04-16T10:49:40;9.73;;;6.90;;
22965;SDS011;11649;48.090;9.754;2023-04-16T10:52:09;7.65;;;5.90;;
22965;SDS011;11649;48.090;9.754;2023-04-16T10:54:38;8.88;;;7.03;;
22965;SDS011;11649;48.090;9.754;2023-04-16T10:57:05;9.02;;;7.03;;
22965;SDS011;11649;48.090;9.754;2023-04-16T10:59:41;8.10;;;6.18;;
22965;SDS011;11649;48.090;9.754;2023-04-16T11:02:12;9.52;;;7.20;;
22965;SDS011;11649;48.090;9.754;2023-04-16T11:04:44;9.43;;;7.00;;
22965;SDS011;11649;48.090;9.754;2023-04-16T11:12:32;9.27;;;7.10;;
22965;SDS011;11649;48.090;9.754;2023-04-16T11:17:50;9.88;;;7.90;;
22965;SDS011;11649;48.090;9.754;2023-04-16T11:20:18;8.30;;;6.85;;
22965;SDS011;11649;48.090;9.754;2023-04-16T11:22:47;8.85;;;6.88;;
22965;SDS011;11649;48.090;9.754;2023-04-16T11:25:18;8.40;;;6.78;;
22965;SDS011;11649;48.090;9.754;2023-04-16T11:27:46;7.68;;;6.50;;
22965;SDS011;11649;48.090;9.754;2023-04-16T11:30:14;7.97;;;6.32;;
22965;SDS011;11649;48.090;9.754;2023-04-16T11:32:40;7.88;;;6.18;;
22965;SDS011;11649;48.090;9.754;2023-04-16T11:35:13;7.57;;;6.13;;
22965;SDS011;11649;48.090;9.754;2023-04-16T11:37:44;7.90;;;6.38;;
22965;SDS011;11649;48.090;9.754;2023-04-16T11:40:12;6.68;;;5.68;;
22965;SDS011;11649;48.090;9.754;2023-04-16T11:42:39;7.47;;;5.68;;
22965;SDS011;11649;48.090;9.754;2023-04-16T11:45:07;7.95;;;6.22;;
22965;SDS011;11649;48.090;9.754;2023-04-16T11:47:46;7.60;;;6.25;;
22965;SDS011;11649;48.090;9.754;2023-04-16T11:52:49;6.82;;;5.43;;
22965;SDS011;11649;48.090;9.754;2023-04-16T11:55:17;8.75;;;6.07;;
22965;SDS011;11649;48.090;9.754;2023-04-16T11:57:45;7.65;;;6.45;;
22965;SDS011;11649;48.090;9.754;2023-04-16T12:00:12;8.55;;;6.60;;
22965;SDS011;11649;48.090;9.754;2023-04-16T12:02:40;7.53;;;6.18;;
22965;SDS011;11649;48.090;9.754;2023-04-16T12:05:27;9.55;;;6.55;;
22965;SDS011;11649;48.090;9.754;2023-04-16T12:08:09;7.18;;;5.90;;
22965;SDS011;11649;48.090;9.754;2023-04-16T12:10:51;6.95;;;5.90;;
22965;SDS011;11649;48.090;9.754;2023-04-16T12:13:19;6.15;;;4.90;;
22965;SDS011;11649;48.090;9.754;2023-04-16T12:15:46;7.18;;;5.88;;
22965;SDS011;11649;48.090;9.754;2023-04-16T12:18:17;6.63;;;5.63;;
22965;SDS011;11649;48.090;9.754;2023-04-16T12:20:45;7.07;;;5.45;;
22965;SDS011;11649;48.090;9.754;2023-04-16T12:23:32;6.28;;;5.20;;
22965;SDS011;11649;48.090;9.754;2023-04-16T12:26:05;6.03;;;5.40;;
22965;SDS011;11649;48.090;9.754;2023-04-16T12:28:36;7.07;;;5.70;;
22965;SDS011;11649;48.090;9.754;2023-04-16T12:31:04;7.70;;;5.82;;
22965;SDS011;11649;48.090;9.754;2023-04-16T12:33:32;7.22;;;5.72;;
22965;SDS011;11649;48.090;9.754;2023-04-16T12:35:59;6.68;;;5.32;;
22965;SDS011;11649;48.090;9.754;2023-04-16T12:38:28;6.05;;;5.30;;
22965;SDS011;11649;48.090;9.754;2023-04-16T12:40:54;7.28;;;5.72;;
22965;SDS011;11649;48.090;9.754;2023-04-16T12:43:23;7.45;;;5.90;;
22965;SDS011;11649;48.090;9.754;2023-04-16T12:45:50;6.80;;;5.60;;
22965;SDS011;11649;48.090;9.754;2023-04-16T12:48:17;6.90;;;5.45;;
22965;SDS011;11649;48.090;9.754;2023-04-16T12:50:43;6.65;;;5.35;;
22965;SDS011;11649;48.090;9.754;2023-04-16T12:53:11;5.78;;;4.57;;
22965;SDS011;11649;48.090;9.754;2023-04-16T12:55:37;6.78;;;5.68;;
22965;SDS011;11649;48.090;9.754;2023-04-16T12:58:04;7.57;;;5.65;;
22965;SDS011;11649;48.090;9.754;2023-04-16T13:00:31;7.60;;;6.00;;
22965;SDS011;11649;48.090;9.754;2023-04-16T13:02:58;6.43;;;5.55;;
22965;SDS011;11649;48.090;9.754;2023-04-16T13:05:25;7.35;;;5.50;;
22965;SDS011;11649;48.090;9.754;2023-04-16T13:07:52;6.85;;;5.55;;
22965;SDS011;11649;48.090;9.754;2023-04-16T13:10:19;7.85;;;6.05;;
22965;SDS011;11649;48.090;9.754;2023-04-16T13:12:47;6.88;;;5.32;;
22965;SDS011;11649;48.090;9.754;2023-04-16T13:15:14;7.93;;;6.32;;
22965;SDS011;11649;48.090;9.754;2023-04-16T13:17:41;7.38;;;5.93;;
22965;SDS011;11649;48.090;9.754;2023-04-16T13:20:08;8.18;;;5.95;;
22965;SDS011;11649;48.090;9.754;2023-04-16T13:22:35;8.15;;;6.43;;
22965;SDS011;11649;48.090;9.754;2023-04-16T13:25:02;7.40;;;5.82;;
22965;SDS011;11649;48.090;9.754;2023-04-16T13:27:30;9.52;;;6.60;;
22965;SDS011;11649;48.090;9.754;2023-04-16T13:29:57;9.40;;;6.97;;
22965;SDS011;11649;48.090;9.754;2023-04-16T13:32:24;9.73;;;6.70;;
22965;SDS011;11649;48.090;9.754;2023-04-16T13:34:51;8.73;;;6.55;;
22965;SDS011;11649;48.090;9.754;2023-04-16T13:37:18;7.47;;;5.75;;
22965;SDS011;11649;48.090;9.754;2023-04-16T13:39:45;6.90;;;5.68;;
22965;SDS011;11649;48.090;9.754;2023-04-16T13:42:12;8.30;;;5.70;;
22965;SDS011;11649;48.090;9.754;2023-04-16T13:44:39;8.00;;;6.10;;
22965;SDS011;11649;48.090;9.754;2023-04-16T13:47:06;7.63;;;6.00;;
22965;SDS011;11649;48.090;9.754;2023-04-16T13:49:33;6.63;;;5.28;;
22965;SDS011;11649;48.090;9.754;2023-04-16T13:52:01;6.18;;;5.15;;
22965;SDS011;11649;48.090;9.754;2023-04-16T13:54:28;6.07;;;5.13;;
22965;SDS011;11649;48.090;9.754;2023-04-16T13:56:55;6.22;;;5.28;;
22965;SDS011;11649;48.090;9.754;2023-04-16T13:59:22;6.85;;;5.13;;
22965;SDS011;11649;48.090;9.754;2023-04-16T14:01:49;6.85;;;5.20;;
22965;SDS011;11649;48.090;9.754;2023-04-16T14:04:16;5.32;;;4.38;;
22965;SDS011;11649;48.090;9.754;2023-04-16T14:06:43;6.63;;;4.93;;
22965;SDS011;11649;48.090;9.754;2023-04-16T14:09:10;6.65;;;4.75;;
22965;SDS011;11649;48.090;9.754;2023-04-16T14:11:38;5.93;;;4.70;;
22965;SDS011;11649;48.090;9.754;2023-04-16T14:14:04;5.82;;;4.50;;
22965;SDS011;11649;48.090;9.754;2023-04-16T14:16:32;5.50;;;4.03;;
22965;SDS011;11649;48.090;9.754;2023-04-16T14:18:59;5.50;;;4.00;;
22965;SDS011;11649;48.090;9.754;2023-04-16T14:21:25;5.65;;;4.57;;
22965;SDS011;11649;48.090;9.754;2023-04-16T14:23:52;5.65;;;4.40;;
22965;SDS011;11649;48.090;9.754;2023-04-16T14:26:19;6.43;;;4.30;;
22965;SDS011;11649;48.090;9.754;2023-04-16T14:28:46;4.65;;;4.07;;
22965;SDS011;11649;48.090;9.754;2023-04-16T14:31:13;5.32;;;4.03;;
22965;SDS011;11649;48.090;9.754;2023-04-16T14:33:42;4.30;;;3.55;;
22965;SDS011;11649;48.090;9.754;2023-04-16T14:36:09;5.28;;;3.90;;
22965;SDS011;11649;48.090;9.754;2023-04-16T14:38:36;4.28;;;3.70;;
22965;SDS011;11649;48.090;9.754;2023-04-16T14:41:03;4.57;;;3.55;;
22965;SDS011;11649;48.090;9.754;2023-04-16T14:43:29;4.03;;;3.30;;
22965;SDS011;11649;48.090;9.754;2023-04-16T14:45:56;3.85;;;3.20;;
22965;SDS011;11649;48.090;9.754;2023-04-16T14:48:24;4.03;;;2.97;;
22965;SDS011;11649;48.090;9.754;2023-04-16T14:50:52;3.55;;;2.88;;
22965;SDS011;11649;48.090;9.754;2023-04-16T14:53:19;4.60;;;2.90;;
22965;SDS011;11649;48.090;9.754;2023-04-16T14:55:46;3.75;;;3.22;;
22965;SDS011;11649;48.090;9.754;2023-04-16T14:58:12;3.78;;;3.03;;
22965;SDS011;11649;48.090;9.754;2023-04-16T15:00:39;4.13;;;2.78;;
22965;SDS011;11649;48.090;9.754;2023-04-16T15:03:06;4.25;;;2.85;;
22965;SDS011;11649;48.090;9.754;2023-04-16T15:05:33;4.25;;;2.92;;
22965;SDS011;11649;48.090;9.754;2023-04-16T15:08:01;3.35;;;2.90;;